Time;durP1;ratioP1;P1;durP2;ratioP2;P2;SDS_P1;SDS_P2;PMS_P1;PMS_P2;Temp;Humidity;BMP_temperature;BMP_pressure;BME280_temperature;BME280_humidity;BME280_pressure;Samples;Min_cycle;Max_cycle;Signal;HPM_P1;HPM_P2
2023/05/18 00:02:04;;;;;;;7.40;3.65;;;14.80;35.80;;;;;;5093129;28;20203;-53
2023/05/18 00:04:34;;;;;;;6.40;4.47;;;14.80;35.60;;;;;;5093506;28;20256;-54
2023/05/18 00:07:04;;;;;;;10.07;5.28;;;14.70;35.60;;;;;;5091814;28;20608;-54
2023/05/18 00:09:31;;;;;;;9.35;5.88;;;14.70;35.70;;;;;;5092949;28;20198;-53
2023/05/18 00:11:58;;;;;;;13.30;6.63;;;14.70;35.70;;;;;;5093041;28;20192;-54
2023/05/18 00:14:24;;;;;;;10.20;6.82;;;14.60;35.90;;;;;;5093115;28;20191;-54
2023/05/18 00:16:52;;;;;;;11.93;6.13;;;14.60;35.70;;;;;;5092950;28;20669;-53
2023/05/18 00:19:19;;;;;;;13.55;6.63;;;14.50;36.10;;;;;;5092673;28;20638;-54
2023/05/18 00:21:46;;;;;;;11.52;5.97;;;14.50;35.90;;;;;;5092880;28;20206;-53
2023/05/18 00:24:13;;;;;;;16.25;6.70;;;14.50;36.10;;;;;;5092814;28;20203;-53
2023/05/18 00:26:43;;;;;;;16.83;6.45;;;14.50;36.30;;;;;;5093003;28;20215;-54
2023/05/18 00:29:09;;;;;;;9.70;4.60;;;14.50;36.40;;;;;;5092665;28;20175;-54
2023/05/18 00:31:37;;;;;;;9.40;5.90;;;14.50;36.40;;;;;;5092640;28;20206;-53
2023/05/18 00:34:10;;;;;;;9.63;4.32;;;14.40;36.60;;;;;;5092786;28;20641;-54
2023/05/18 00:36:37;;;;;;;8.73;4.35;;;14.40;36.80;;;;;;5092655;28;20174;-54
2023/05/18 00:39:04;;;;;;;7.60;4.25;;;14.30;36.70;;;;;;5092858;28;20245;-54
2023/05/18 00:41:30;;;;;;;5.38;3.38;;;14.30;36.90;;;;;;5092511;28;20199;-53
2023/05/18 00:43:56;;;;;;;6.97;3.13;;;14.20;37.00;;;;;;5092663;28;20191;-53
2023/05/18 00:46:24;;;;;;;9.43;3.38;;;14.20;36.80;;;;;;5092598;28;20253;-54
2023/05/18 00:48:50;;;;;;;7.57;3.50;;;14.20;36.90;;;;;;5092463;28;20172;-52
2023/05/18 00:51:24;;;;;;;6.05;4.30;;;14.10;36.90;;;;;;5092059;28;20199;-54
2023/05/18 00:53:51;;;;;;;4.57;3.25;;;14.10;36.90;;;;;;5092773;28;20495;-53
2023/05/18 00:56:18;;;;;;;6.13;3.85;;;14.10;36.80;;;;;;5092000;28;20592;-53
2023/05/18 00:58:44;;;;;;;5.05;2.83;;;14.00;36.80;;;;;;5092488;28;20254;-53
2023/05/18 01:01:10;;;;;;;5.82;3.13;;;14.00;36.90;;;;;;5092078;28;20244;-52
2023/05/18 01:03:37;;;;;;;6.07;3.28;;;13.90;37.10;;;;;;5092514;28;20262;-53
2023/05/18 01:06:08;;;;;;;7.07;2.90;;;13.90;37.10;;;;;;5092604;28;20565;-53
2023/05/18 01:08:35;;;;;;;8.55;3.70;;;13.90;37.30;;;;;;5092159;28;20293;-53
2023/05/18 01:11:18;;;;;;;4.95;3.65;;;13.90;37.40;;;;;;5091878;28;20622;-53
2023/05/18 01:14:02;;;;;;;8.85;5.28;;;13.90;37.40;;;;;;5092540;28;20235;-53
2023/05/18 01:16:36;;;;;;;6.57;3.95;;;13.90;37.50;;;;;;5092243;28;20258;-53
2023/05/18 01:19:40;;;;;;;6.07;4.05;;;13.80;37.70;;;;;;5092453;28;20160;-53
2023/05/18 01:22:33;;;;;;;19.35;12.52;;;13.80;37.70;;;;;;5085559;28;20203;-55
2023/05/18 01:25:09;;;;;;;27.70;17.08;;;13.70;37.80;;;;;;5092233;28;20172;-55
2023/05/18 01:27:36;;;;;;;21.10;14.98;;;13.60;37.70;;;;;;5092100;28;20184;-55
2023/05/18 01:30:03;;;;;;;21.45;15.10;;;13.50;37.80;;;;;;5091927;28;20180;-54
2023/05/18 01:32:29;;;;;;;16.05;12.38;;;13.50;37.80;;;;;;5092120;28;20168;-55
2023/05/18 01:34:55;;;;;;;16.57;10.50;;;13.40;37.70;;;;;;5090730;28;20203;-55
2023/05/18 01:37:21;;;;;;;17.37;11.77;;;13.40;37.70;;;;;;5092179;28;20405;-55
2023/05/18 01:39:47;;;;;;;15.17;9.07;;;13.40;37.80;;;;;;5092147;28;20417;-55
2023/05/18 01:42:19;;;;;;;10.37;6.80;;;13.30;37.90;;;;;;5092008;28;20193;-55
2023/05/18 01:44:52;;;;;;;15.20;5.63;;;13.30;38.00;;;;;;5091951;28;20618;-56
2023/05/18 01:47:18;;;;;;;8.23;6.32;;;13.30;38.00;;;;;;5091971;28;20279;-55
2023/05/18 01:50:00;;;;;;;10.97;5.77;;;13.30;38.10;;;;;;5091696;28;20231;-55
2023/05/18 01:52:38;;;;;;;8.27;4.57;;;13.20;38.20;;;;;;5091934;28;20543;-55
2023/05/18 01:55:06;;;;;;;6.90;4.40;;;13.20;38.10;;;;;;5091885;28;20252;-53
2023/05/18 01:57:34;;;;;;;6.20;3.70;;;13.20;38.30;;;;;;5091964;28;20175;-53
2023/05/18 02:00:00;;;;;;;13.73;4.38;;;13.10;38.40;;;;;;5091392;28;20172;-53
2023/05/18 02:02:27;;;;;;;5.38;3.45;;;13.10;38.30;;;;;;5091603;28;20183;-53
2023/05/18 02:04:53;;;;;;;12.10;4.63;;;13.10;38.30;;;;;;5091625;28;20270;-53
2023/05/18 02:07:19;;;;;;;10.63;4.23;;;13.00;38.20;;;;;;5094914;28;20328;-53
2023/05/18 02:09:45;;;;;;;8.00;4.10;;;13.00;38.10;;;;;;5095169;28;20418;-53
2023/05/18 02:12:11;;;;;;;3.90;2.60;;;13.00;38.10;;;;;;5095510;28;20199;-53
2023/05/18 02:14:37;;;;;;;6.78;3.90;;;13.00;38.20;;;;;;5095370;28;20405;-53
2023/05/18 02:17:05;;;;;;;6.28;4.03;;;13.00;38.10;;;;;;5095516;28;20183;-53
2023/05/18 02:19:32;;;;;;;9.25;4.40;;;12.90;38.20;;;;;;5095369;28;20203;-54
2023/05/18 02:21:58;;;;;;;5.47;3.92;;;12.90;38.40;;;;;;5095533;28;20211;-54
2023/05/18 02:24:24;;;;;;;9.50;3.90;;;12.90;38.30;;;;;;5095252;28;20179;-53
2023/05/18 02:26:52;;;;;;;4.37;3.20;;;12.90;38.40;;;;;;5095418;28;20199;-53
2023/05/18 02:29:18;;;;;;;4.68;3.58;;;12.90;38.40;;;;;;5094945;28;20218;-53
2023/05/18 02:31:44;;;;;;;8.93;4.03;;;12.90;38.50;;;;;;5095119;28;20188;-53
2023/05/18 02:34:09;;;;;;;11.80;4.90;;;12.80;38.50;;;;;;5095394;28;20176;-54
2023/05/18 02:36:38;;;;;;;10.97;4.23;;;12.80;38.50;;;;;;5095232;28;20406;-53
2023/05/18 02:39:05;;;;;;;6.70;3.63;;;12.80;38.60;;;;;;5095234;28;20240;-53
2023/05/18 02:41:35;;;;;;;8.25;4.00;;;12.80;38.60;;;;;;5094710;28;20206;-53
2023/05/18 02:44:05;;;;;;;5.20;3.70;;;12.80;38.50;;;;;;5095215;28;20198;-53
2023/05/18 02:46:31;;;;;;;8.60;4.30;;;12.70;38.60;;;;;;5094810;28;20204;-54
2023/05/18 02:48:57;;;;;;;10.38;4.53;;;12.70;38.60;;;;;;5094844;28;20711;-54
2023/05/18 02:51:23;;;;;;;12.50;4.60;;;12.70;38.60;;;;;;5094707;28;20183;-53
2023/05/18 02:53:50;;;;;;;5.17;3.20;;;12.60;38.50;;;;;;5095065;28;20176;-53
2023/05/18 02:56:19;;;;;;;6.47;4.25;;;12.60;38.60;;;;;;5095012;28;20413;-53
2023/05/18 02:58:45;;;;;;;4.60;3.33;;;12.60;38.30;;;;;;5095000;28;20545;-53
2023/05/18 03:01:13;;;;;;;5.90;3.27;;;12.60;38.40;;;;;;5094465;28;20691;-53
2023/05/18 03:03:40;;;;;;;7.55;3.63;;;12.60;38.70;;;;;;5094662;28;20405;-54
2023/05/18 03:06:07;;;;;;;6.25;4.15;;;12.50;38.80;;;;;;5094452;28;20304;-53
2023/05/18 03:08:35;;;;;;;12.52;4.40;;;12.50;38.70;;;;;;5094431;28;20288;-54
2023/05/18 03:11:01;;;;;;;10.32;3.78;;;12.50;38.90;;;;;;5094170;28;20216;-54
2023/05/18 03:13:27;;;;;;;7.80;3.95;;;12.50;38.70;;;;;;5094724;28;20255;-54
2023/05/18 03:15:55;;;;;;;7.53;5.00;;;12.50;38.50;;;;;;5094367;28;20590;-56
2023/05/18 03:18:21;;;;;;;7.70;3.80;;;12.50;38.60;;;;;;5094025;28;20251;-53
2023/05/18 03:20:50;;;;;;;6.03;3.88;;;12.50;38.70;;;;;;5094005;28;20199;-52
2023/05/18 03:23:18;;;;;;;6.55;3.50;;;12.50;39.10;;;;;;5094138;28;20565;-54
2023/05/18 03:25:44;;;;;;;7.22;3.50;;;12.50;39.30;;;;;;5094150;28;20180;-54
2023/05/18 03:28:10;;;;;;;8.70;3.90;;;12.50;39.30;;;;;;5094316;28;20200;-52
2023/05/18 03:30:36;;;;;;;10.10;3.60;;;12.40;39.20;;;;;;5093733;28;20425;-52
2023/05/18 03:33:02;;;;;;;5.70;4.70;;;12.40;39.10;;;;;;5094083;28;20412;-55
2023/05/18 03:35:28;;;;;;;7.60;3.80;;;12.40;39.00;;;;;;5092825;28;20260;-52
2023/05/18 03:37:54;;;;;;;6.47;3.65;;;12.40;38.50;;;;;;5093901;28;20724;-53
2023/05/18 03:40:21;;;;;;;8.05;4.57;;;12.40;38.60;;;;;;5093825;28;20196;-54
2023/05/18 03:42:46;;;;;;;9.45;3.00;;;12.30;38.70;;;;;;5094104;28;20180;-55
2023/05/18 03:45:12;;;;;;;5.73;3.30;;;12.30;38.70;;;;;;5094245;28;20503;-52
2023/05/18 03:47:38;;;;;;;4.47;3.37;;;12.30;38.90;;;;;;5094021;28;20192;-52
2023/05/18 03:50:05;;;;;;;7.80;3.10;;;12.30;38.90;;;;;;5093410;28;20402;-54
2023/05/18 03:52:33;;;;;;;10.60;4.30;;;12.20;39.00;;;;;;5093779;28;20573;-54
2023/05/18 03:55:00;;;;;;;8.40;4.40;;;12.20;39.10;;;;;;5093434;28;20203;-52
2023/05/18 03:57:27;;;;;;;8.35;5.25;;;12.10;39.20;;;;;;5093705;28;20184;-55
2023/05/18 03:59:53;;;;;;;5.85;3.65;;;12.20;39.20;;;;;;5093096;28;20212;-54
2023/05/18 04:02:19;;;;;;;8.30;4.32;;;12.10;39.50;;;;;;5093385;28;20531;-52
2023/05/18 04:04:46;;;;;;;10.38;3.97;;;12.20;39.70;;;;;;5093365;28;20176;-54
2023/05/18 04:07:15;;;;;;;7.95;3.72;;;12.20;40.00;;;;;;5093138;28;20550;-54
2023/05/18 04:09:42;;;;;;;5.40;3.88;;;12.30;40.30;;;;;;5093043;28;20188;-52
2023/05/18 04:12:08;;;;;;;6.13;3.63;;;12.30;39.90;;;;;;5093392;28;20595;-52
2023/05/18 04:14:34;;;;;;;6.70;3.23;;;12.40;39.80;;;;;;5093358;28;20168;-54
2023/05/18 04:17:06;;;;;;;6.80;3.40;;;12.40;39.90;;;;;;5093078;28;20413;-54
2023/05/18 04:19:36;;;;;;;7.55;3.33;;;12.40;39.70;;;;;;5092845;28;20167;-51
2023/05/18 04:22:05;;;;;;;6.38;3.78;;;12.50;39.90;;;;;;5093110;28;20187;-55
2023/05/18 04:24:33;;;;;;;6.65;3.22;;;12.50;39.90;;;;;;5093088;28;20305;-52
2023/05/18 04:27:00;;;;;;;8.68;4.68;;;12.60;39.70;;;;;;5092781;28;20200;-52
2023/05/18 04:29:29;;;;;;;9.88;4.40;;;12.70;39.70;;;;;;5091679;28;20229;-52
2023/05/18 04:32:01;;;;;;;8.60;5.18;;;12.80;39.30;;;;;;5092713;28;20722;-53
2023/05/18 04:34:28;;;;;;;9.50;4.13;;;12.80;39.20;;;;;;5093108;28;20569;-52
2023/05/18 04:36:55;;;;;;;7.35;4.00;;;12.90;38.80;;;;;;5092954;28;20198;-54
2023/05/18 04:39:24;;;;;;;9.40;3.78;;;13.00;38.70;;;;;;5092446;28;20215;-53
2023/05/18 04:41:59;;;;;;;10.35;4.18;;;13.10;38.60;;;;;;5092627;28;20218;-52
2023/05/18 04:44:30;;;;;;;5.65;3.88;;;13.20;38.30;;;;;;5092564;28;20176;-54
2023/05/18 04:46:56;;;;;;;7.10;5.32;;;13.30;38.40;;;;;;5092459;28;20204;-54
2023/05/18 04:49:22;;;;;;;7.23;3.53;;;13.30;38.20;;;;;;5092636;28;20176;-52
2023/05/18 04:51:55;;;;;;;10.80;3.80;;;13.40;38.00;;;;;;5092550;28;20180;-52
2023/05/18 04:54:31;;;;;;;9.00;4.05;;;13.50;38.10;;;;;;5092484;28;20390;-54
2023/05/18 04:56:57;;;;;;;9.57;4.05;;;13.50;37.70;;;;;;5092472;28;20645;-52
2023/05/18 04:59:25;;;;;;;7.93;4.88;;;13.50;37.80;;;;;;5092227;28;20195;-53
2023/05/18 05:01:52;;;;;;;8.25;5.32;;;13.50;37.80;;;;;;5092649;28;20278;-52
2023/05/18 05:04:18;;;;;;;12.90;6.32;;;13.60;37.80;;;;;;5092471;28;20168;-52
2023/05/18 05:06:44;;;;;;;12.13;6.25;;;13.70;37.90;;;;;;5092304;28;20689;-55
2023/05/18 05:09:12;;;;;;;12.67;5.00;;;13.80;37.80;;;;;;5092075;28;20179;-54
2023/05/18 05:11:38;;;;;;;6.38;4.07;;;13.80;37.50;;;;;;5090911;28;20320;-52
2023/05/18 05:14:04;;;;;;;13.03;4.40;;;13.90;37.50;;;;;;5091020;28;20760;-52
2023/05/18 05:16:30;;;;;;;8.70;4.00;;;14.00;37.40;;;;;;5092600;28;20410;-54
2023/05/18 05:18:56;;;;;;;6.47;3.73;;;14.20;37.20;;;;;;5092143;28;20171;-54
2023/05/18 05:21:22;;;;;;;7.87;3.80;;;14.30;37.20;;;;;;5092190;28;20421;-52
2023/05/18 05:23:48;;;;;;;8.68;4.10;;;14.40;37.00;;;;;;5092480;28;20406;-53
2023/05/18 05:26:13;;;;;;;9.40;3.63;;;14.50;36.60;;;;;;5091986;28;20253;-54
2023/05/18 05:28:39;;;;;;;10.23;3.90;;;14.60;36.40;;;;;;5092481;28;20168;-53
2023/05/18 05:31:05;;;;;;;12.47;3.33;;;14.70;35.60;;;;;;5091800;28;20209;-52
2023/05/18 05:33:31;;;;;;;14.33;4.30;;;14.70;35.40;;;;;;5092109;28;20402;-54
2023/05/18 05:35:57;;;;;;;11.40;4.20;;;14.80;34.90;;;;;;5092103;28;20171;-52
2023/05/18 05:38:23;;;;;;;7.43;3.83;;;14.90;34.70;;;;;;5092075;28;20172;-52
2023/05/18 05:40:48;;;;;;;6.53;3.30;;;15.00;34.40;;;;;;5092308;28;20190;-54
2023/05/18 05:43:15;;;;;;;7.73;3.77;;;15.00;34.50;;;;;;5096218;28;20175;-54
2023/05/18 05:45:42;;;;;;;7.30;3.10;;;15.10;34.90;;;;;;5096078;28;20182;-51
2023/05/18 05:48:08;;;;;;;8.15;4.05;;;15.20;35.20;;;;;;5095859;28;20203;-52
2023/05/18 05:50:34;;;;;;;10.30;3.90;;;15.30;34.50;;;;;;5095865;28;20245;-54
2023/05/18 05:53:00;;;;;;;6.40;3.47;;;15.40;34.20;;;;;;5095919;28;20179;-52
2023/05/18 05:55:29;;;;;;;7.63;3.30;;;15.40;33.90;;;;;;5096041;28;20164;-54
2023/05/18 05:57:55;;;;;;;9.13;4.72;;;15.40;33.30;;;;;;5096145;28;20184;-52
2023/05/18 06:00:22;;;;;;;14.23;4.70;;;15.50;33.80;;;;;;5094192;28;20291;-52
2023/05/18 06:02:48;;;;;;;7.15;3.08;;;15.60;34.10;;;;;;5095742;28;20175;-54
2023/05/18 06:05:13;;;;;;;5.93;3.03;;;15.70;33.80;;;;;;5095792;28;20184;-52
2023/05/18 06:07:39;;;;;;;5.57;3.00;;;15.80;33.80;;;;;;5095903;28;20661;-52
2023/05/18 06:10:06;;;;;;;5.97;3.37;;;15.90;33.70;;;;;;5095137;28;20652;-54
2023/05/18 06:12:32;;;;;;;11.98;3.97;;;16.00;33.30;;;;;;5095538;28;20447;-52
2023/05/18 06:14:57;;;;;;;7.87;3.20;;;16.00;32.90;;;;;;5095608;28;20168;-52
2023/05/18 06:17:26;;;;;;;8.30;4.80;;;16.10;31.70;;;;;;5095700;28;20664;-51
2023/05/18 06:19:53;;;;;;;6.82;3.67;;;16.10;31.80;;;;;;5095214;28;20203;-55
2023/05/18 06:22:19;;;;;;;12.10;3.55;;;16.00;31.20;;;;;;5095205;28;20202;-52
2023/05/18 06:24:45;;;;;;;4.10;2.57;;;16.00;31.30;;;;;;5095270;28;20168;-52
2023/05/18 06:27:11;;;;;;;6.57;3.10;;;16.00;31.00;;;;;;5095496;28;20538;-54
2023/05/18 06:29:36;;;;;;;7.07;3.40;;;16.10;32.20;;;;;;5095102;28;20548;-52
2023/05/18 06:32:02;;;;;;;3.73;2.50;;;16.30;32.60;;;;;;5095213;28;20237;-52
2023/05/18 06:34:28;;;;;;;5.32;2.60;;;16.50;32.80;;;;;;5095262;28;20257;-54
2023/05/18 06:36:54;;;;;;;4.63;2.70;;;16.60;31.10;;;;;;5095365;28;20678;-52
2023/05/18 06:39:20;;;;;;;5.38;2.92;;;16.60;31.10;;;;;;5094941;28;20271;-52
2023/05/18 06:41:46;;;;;;;10.93;3.20;;;16.70;30.90;;;;;;5094996;28;20271;-53
2023/05/18 06:44:12;;;;;;;5.80;2.50;;;16.70;30.60;;;;;;5095074;28;20409;-52
2023/05/18 06:46:38;;;;;;;4.20;2.70;;;16.70;29.20;;;;;;5094979;28;20210;-54
2023/05/18 06:49:04;;;;;;;7.57;2.53;;;16.60;29.00;;;;;;5094787;28;20175;-54
2023/05/18 06:51:30;;;;;;;4.57;2.00;;;16.70;30.40;;;;;;5094423;28;20184;-52
2023/05/18 06:53:56;;;;;;;4.32;2.85;;;16.80;29.10;;;;;;5093665;28;20456;-51
2023/05/18 06:56:22;;;;;;;7.03;3.10;;;16.90;29.40;;;;;;5094545;28;20637;-54
2023/05/18 06:58:48;;;;;;;4.63;2.50;;;16.90;28.70;;;;;;5094638;28;20176;-54
2023/05/18 07:01:16;;;;;;;7.60;3.63;;;17.00;29.30;;;;;;5094372;28;20200;-52
2023/05/18 07:03:42;;;;;;;10.15;2.28;;;17.20;29.90;;;;;;5094741;28;20183;-54
2023/05/18 07:06:08;;;;;;;5.03;2.03;;;17.40;30.40;;;;;;5094283;28;20187;-54
2023/05/18 07:08:35;;;;;;;7.00;2.73;;;17.60;30.40;;;;;;5094248;28;20164;-52
2023/05/18 07:11:02;;;;;;;5.15;2.28;;;17.80;29.30;;;;;;5093992;28;20202;-54
2023/05/18 07:13:28;;;;;;;6.93;2.65;;;17.90;30.10;;;;;;5092792;28;20178;-53
2023/05/18 07:15:54;;;;;;;4.20;2.20;;;18.10;29.30;;;;;;5094100;28;20164;-54
2023/05/18 07:18:20;;;;;;;5.20;2.30;;;18.20;29.50;;;;;;5094213;28;20406;-51
2023/05/18 07:20:45;;;;;;;5.57;2.40;;;18.30;29.00;;;;;;5093719;28;20863;-51
2023/05/18 07:23:13;;;;;;;5.07;2.60;;;18.40;29.20;;;;;;5094030;28;20327;-53
2023/05/18 07:25:38;;;;;;;9.07;2.17;;;18.40;28.90;;;;;;5094123;28;20183;-52
2023/05/18 07:28:05;;;;;;;5.13;1.93;;;18.40;28.00;;;;;;5093869;28;20681;-51
2023/05/18 07:30:31;;;;;;;5.32;2.33;;;18.40;28.20;;;;;;5093588;28;20196;-54
2023/05/18 07:32:57;;;;;;;5.70;2.20;;;18.40;28.30;;;;;;5094094;28;20253;-53
2023/05/18 07:35:25;;;;;;;4.63;2.40;;;18.30;28.20;;;;;;5093839;28;20630;-52
2023/05/18 07:37:52;;;;;;;7.40;2.15;;;18.20;28.50;;;;;;5093925;28;20496;-52
2023/05/18 07:40:18;;;;;;;11.68;3.33;;;18.20;29.20;;;;;;5093668;28;20861;-53
2023/05/18 07:42:45;;;;;;;5.63;2.08;;;18.10;29.10;;;;;;5093875;28;20228;-51
2023/05/18 07:45:11;;;;;;;6.38;2.80;;;18.20;28.70;;;;;;5093655;28;20172;-52
2023/05/18 07:47:37;;;;;;;6.32;2.10;;;18.30;28.30;;;;;;5093635;28;20191;-54
2023/05/18 07:50:03;;;;;;;5.28;1.73;;;18.40;27.20;;;;;;5093092;28;20172;-55
2023/05/18 07:52:29;;;;;;;8.00;2.40;;;18.50;27.90;;;;;;5093479;28;20622;-52
2023/05/18 07:54:58;;;;;;;6.15;2.15;;;18.80;28.60;;;;;;5093368;28;20179;-52
2023/05/18 07:57:24;;;;;;;8.35;2.22;;;19.00;28.20;;;;;;5093534;28;20257;-54
2023/05/18 07:59:51;;;;;;;4.88;3.00;;;19.10;27.70;;;;;;5093188;28;20257;-52
2023/05/18 08:02:18;;;;;;;4.95;2.00;;;19.20;27.20;;;;;;5093186;28;20567;-53
2023/05/18 08:04:44;;;;;;;6.30;2.17;;;19.20;27.60;;;;;;5093057;28;20684;-53
2023/05/18 08:07:11;;;;;;;5.10;1.90;;;19.30;27.70;;;;;;5091939;28;20203;-53
2023/05/18 08:09:37;;;;;;;3.45;1.90;;;19.40;27.20;;;;;;5091979;28;20188;-53
2023/05/18 08:12:04;;;;;;;9.30;2.40;;;19.40;27.50;;;;;;5091680;28;20207;-54
2023/05/18 08:14:30;;;;;;;9.40;3.03;;;19.50;26.20;;;;;;5092071;28;20633;-52
2023/05/18 08:16:56;;;;;;;8.80;2.43;;;19.60;25.80;;;;;;5092047;28;20237;-54
2023/05/18 08:19:23;;;;;;;9.93;2.20;;;19.60;26.30;;;;;;5091850;28;20434;-54
2023/05/18 08:21:49;;;;;;;3.00;1.70;;;19.70;26.30;;;;;;5089336;28;20259;-54
2023/05/18 08:24:15;;;;;;;2.73;1.30;;;19.80;26.90;;;;;;5091945;28;20168;-55
2023/05/18 08:26:41;;;;;;;6.50;2.10;;;19.90;27.40;;;;;;5091959;28;20195;-54
2023/05/18 08:29:09;;;;;;;5.33;1.77;;;20.10;26.90;;;;;;5091852;28;20650;-55
2023/05/18 08:31:39;;;;;;;6.78;2.22;;;20.30;26.80;;;;;;5091639;28;20561;-55
2023/05/18 08:34:06;;;;;;;3.75;1.60;;;20.40;26.60;;;;;;5093044;28;20180;-56
2023/05/18 08:36:34;;;;;;;3.67;2.30;;;20.40;27.00;;;;;;5092351;28;20180;-56
2023/05/18 08:39:01;;;;;;;5.93;2.65;;;20.50;26.50;;;;;;5092486;28;20558;-56
2023/05/18 08:41:47;;;;;;;9.00;2.17;;;20.50;25.60;;;;;;5072109;28;20193;-56
2023/05/18 08:44:21;;;;;;;8.30;2.80;;;20.40;25.50;;;;;;5081630;28;20209;-56
2023/05/18 08:46:50;;;;;;;6.18;1.95;;;20.30;26.00;;;;;;5092761;28;20724;-54
2023/05/18 08:49:17;;;;;;;7.90;2.55;;;20.20;25.80;;;;;;5092361;28;20176;-57
2023/05/18 08:51:47;;;;;;;7.10;2.83;;;20.10;25.60;;;;;;5092186;28;20200;-55
2023/05/18 08:54:21;;;;;;;8.63;2.70;;;20.10;25.70;;;;;;5092557;28;20203;-56
2023/05/18 08:56:47;;;;;;;4.78;2.75;;;20.00;26.10;;;;;;5090332;28;20211;-52
2023/05/18 08:59:17;;;;;;;6.63;2.13;;;20.00;26.60;;;;;;5090247;28;20200;-55
2023/05/18 09:01:43;;;;;;;5.90;2.40;;;20.00;26.50;;;;;;5089629;28;20195;-53
2023/05/18 09:04:09;;;;;;;10.37;2.37;;;20.00;26.40;;;;;;5090173;28;20176;-52
2023/05/18 09:06:36;;;;;;;4.80;2.20;;;20.10;27.10;;;;;;5059724;23;20484;-48
2023/05/18 09:09:03;;;;;;;6.90;3.20;;;20.20;26.00;;;;;;5030083;28;20650;-49
2023/05/18 09:11:30;;;;;;;5.93;2.22;;;20.20;26.20;;;;;;5031307;28;20174;-49
2023/05/18 09:13:57;;;;;;;5.40;2.08;;;20.30;25.90;;;;;;5032035;28;20162;-51
2023/05/18 09:16:23;;;;;;;6.18;1.98;;;20.30;26.40;;;;;;5017882;28;20197;-51
2023/05/18 09:18:49;;;;;;;4.10;2.37;;;20.40;26.20;;;;;;5012306;28;20536;-49
2023/05/18 09:21:15;;;;;;;5.63;1.80;;;20.40;25.90;;;;;;5012295;28;20167;-49
2023/05/18 09:23:42;;;;;;;5.50;2.50;;;20.50;26.10;;;;;;5012289;28;20425;-51
2023/05/18 09:26:12;;;;;;;6.25;2.25;;;20.60;25.20;;;;;;5012278;28;20459;-49
2023/05/18 09:28:42;;;;;;;5.60;2.42;;;20.50;25.60;;;;;;5012430;28;20178;-49
2023/05/18 09:31:17;;;;;;;6.55;2.60;;;20.50;24.60;;;;;;5011975;28;20181;-50
2023/05/18 09:33:44;;;;;;;4.10;1.85;;;20.40;25.00;;;;;;5012099;28;20714;-51
2023/05/18 09:36:11;;;;;;;4.35;2.33;;;20.40;25.50;;;;;;5011981;28;20716;-49
2023/05/18 09:38:45;;;;;;;3.97;1.45;;;20.40;25.30;;;;;;5012243;28;20265;-51
2023/05/18 09:41:16;;;;;;;5.35;2.00;;;20.40;25.30;;;;;;5011715;28;20182;-49
2023/05/18 09:43:44;;;;;;;3.67;2.40;;;20.50;25.70;;;;;;5025724;28;20175;-51
2023/05/18 09:46:12;;;;;;;3.60;1.80;;;20.50;25.10;;;;;;5009378;28;20556;-50
2023/05/18 09:48:44;;;;;;;5.38;2.92;;;20.50;25.20;;;;;;5009249;28;20261;-51
2023/05/18 09:51:17;;;;;;;7.28;1.80;;;20.60;25.60;;;;;;5011749;28;20163;-51
2023/05/18 09:53:54;;;;;;;5.40;1.83;;;20.60;25.00;;;;;;5012260;28;20242;-51
2023/05/18 09:56:22;;;;;;;4.00;1.88;;;20.60;25.10;;;;;;5011969;28;20225;-49
2023/05/18 09:58:48;;;;;;;4.35;2.42;;;20.70;25.10;;;;;;5011826;28;20241;-51
2023/05/18 10:01:14;;;;;;;5.43;2.63;;;20.80;24.80;;;;;;5011568;28;20648;-50
2023/05/18 10:03:40;;;;;;;5.13;1.70;;;20.90;25.30;;;;;;5011892;28;20891;-50
2023/05/18 10:06:12;;;;;;;4.10;1.90;;;21.00;25.90;;;;;;5011697;28;20211;-50
2023/05/18 10:08:38;;;;;;;6.20;2.10;;;21.00;25.40;;;;;;5011962;28;20456;-50
2023/05/18 10:11:05;;;;;;;5.40;2.50;;;21.00;25.00;;;;;;5011615;28;20346;-50
2023/05/18 10:13:32;;;;;;;4.20;2.15;;;21.10;25.80;;;;;;5011680;28;20171;-49
2023/05/18 10:16:03;;;;;;;4.18;1.88;;;21.10;24.80;;;;;;5011875;28;20198;-50
2023/05/18 10:18:31;;;;;;;5.25;2.38;;;21.00;24.20;;;;;;5011650;28;20613;-51
2023/05/18 10:20:58;;;;;;;4.97;2.05;;;21.00;25.30;;;;;;5011474;28;20185;-51
2023/05/18 10:23:25;;;;;;;4.05;2.25;;;21.10;25.40;;;;;;5011970;28;20167;-50
2023/05/18 10:25:53;;;;;;;5.70;2.60;;;21.10;24.30;;;;;;5011581;28;20290;-50
2023/05/18 10:28:34;;;;;;;8.25;2.42;;;21.20;24.90;;;;;;5014257;28;20652;-51
2023/05/18 10:31:00;;;;;;;3.10;1.90;;;21.40;25.60;;;;;;5015007;28;20799;-51
2023/05/18 10:33:27;;;;;;;6.17;2.47;;;21.50;24.80;;;;;;5015078;28;20182;-49
2023/05/18 10:35:54;;;;;;;4.88;2.22;;;21.60;24.80;;;;;;5015068;28;20603;-50
2023/05/18 10:38:24;;;;;;;5.03;2.60;;;21.70;24.70;;;;;;5015055;28;20640;-51
2023/05/18 10:40:53;;;;;;;4.60;2.10;;;21.90;23.80;;;;;;5014772;28;20201;-51
2023/05/18 10:43:21;;;;;;;4.75;2.30;;;21.90;24.50;;;;;;5014975;28;20170;-49
2023/05/18 10:45:51;;;;;;;4.90;2.55;;;21.90;22.40;;;;;;5015114;28;20230;-51
2023/05/18 10:48:18;;;;;;;3.78;2.33;;;21.90;22.80;;;;;;5014774;28;20241;-49
2023/05/18 10:50:46;;;;;;;5.75;1.85;;;22.00;23.80;;;;;;5014652;28;20170;-50
2023/05/18 10:53:14;;;;;;;6.40;1.95;;;21.90;23.10;;;;;;5014707;28;20210;-51
2023/05/18 10:55:40;;;;;;;6.38;2.58;;;21.90;22.40;;;;;;5014939;28;20318;-51
2023/05/18 10:58:12;;;;;;;5.83;2.60;;;21.90;23.70;;;;;;5014713;28;20716;-51
2023/05/18 11:00:39;;;;;;;5.15;2.03;;;21.90;23.30;;;;;;5014451;28;20644;-51
2023/05/18 11:03:13;;;;;;;5.97;2.33;;;21.90;24.10;;;;;;5014829;28;20232;-51
2023/05/18 11:05:40;;;;;;;5.05;2.15;;;22.00;24.30;;;;;;5014239;28;20292;-49
2023/05/18 11:08:06;;;;;;;7.63;2.90;;;22.00;24.00;;;;;;5014386;28;20551;-51
2023/05/18 11:10:41;;;;;;;8.23;2.20;;;22.10;23.50;;;;;;5014171;28;20174;-51
2023/05/18 11:13:07;;;;;;;11.32;2.75;;;22.20;23.70;;;;;;5014408;28;20632;-51
2023/05/18 11:15:52;;;;;;;4.35;1.98;;;22.30;24.20;;;;;;5014303;28;20201;-51
2023/05/18 11:18:17;;;;;;;3.17;1.85;;;22.50;23.70;;;;;;5014284;28;20743;-51
2023/05/18 11:20:47;;;;;;;4.50;2.47;;;22.40;23.40;;;;;;5014031;28;20298;-51
2023/05/18 11:23:19;;;;;;;4.22;1.77;;;22.50;23.30;;;;;;5014209;28;20460;-51
2023/05/18 11:25:48;;;;;;;2.67;1.97;;;22.50;23.50;;;;;;5014056;28;20607;-49
2023/05/18 11:28:14;;;;;;;5.63;2.50;;;22.50;23.00;;;;;;5014052;28;20603;-50
2023/05/18 11:30:40;;;;;;;5.00;2.03;;;22.50;22.60;;;;;;5013486;28;20174;-51
2023/05/18 11:33:16;;;;;;;4.40;1.77;;;22.60;23.20;;;;;;5013879;28;20171;-51
2023/05/18 11:36:07;;;;;;;6.40;1.83;;;22.70;22.20;;;;;;5014378;28;20190;-50
2023/05/18 11:38:53;;;;;;;5.80;2.20;;;22.70;22.60;;;;;;5013368;28;20232;-51
2023/05/18 11:41:29;;;;;;;5.27;2.07;;;22.70;22.30;;;;;;5013590;28;20485;-51
2023/05/18 11:44:10;;;;;;;4.40;1.60;;;22.70;21.90;;;;;;5013689;28;20756;-51
2023/05/18 11:46:49;;;;;;;5.45;2.33;;;22.70;22.50;;;;;;5013636;28;20209;-51
2023/05/18 11:49:16;;;;;;;2.47;1.25;;;22.70;22.90;;;;;;5013386;28;20524;-51
2023/05/18 11:52:00;;;;;;;3.13;1.70;;;22.80;22.70;;;;;;5013578;28;20175;-49
2023/05/18 11:54:26;;;;;;;6.53;3.40;;;22.90;22.50;;;;;;5013848;28;20444;-49
2023/05/18 11:56:53;;;;;;;5.83;3.30;;;22.90;22.70;;;;;;5013556;28;20465;-51
2023/05/18 11:59:30;;;;;;;9.40;2.07;;;22.90;23.10;;;;;;5013227;28;20885;-49
2023/05/18 12:01:58;;;;;;;5.40;1.63;;;23.00;23.60;;;;;;5013433;28;20398;-49
2023/05/18 12:04:24;;;;;;;6.63;1.80;;;23.10;22.40;;;;;;5013648;28;20410;-50
2023/05/18 12:06:51;;;;;;;5.50;1.83;;;23.20;22.70;;;;;;5013070;28;20480;-51
2023/05/18 12:09:18;;;;;;;3.23;1.67;;;23.20;22.20;;;;;;5013150;28;20401;-51
2023/05/18 12:11:44;;;;;;;5.15;1.52;;;23.20;22.00;;;;;;5013270;28;20938;-51
2023/05/18 12:14:11;;;;;;;3.70;2.00;;;23.20;22.00;;;;;;5013222;28;20175;-51
2023/05/18 12:16:39;;;;;;;6.10;2.07;;;23.20;22.50;;;;;;5012951;28;20209;-51
2023/05/18 12:19:07;;;;;;;5.37;1.70;;;23.20;22.80;;;;;;5012892;28;20504;-51
2023/05/18 12:21:36;;;;;;;4.10;2.13;;;23.30;21.20;;;;;;5013016;28;20417;-51
2023/05/18 12:24:02;;;;;;;3.90;2.00;;;23.30;22.20;;;;;;5013031;28;20409;-49
2023/05/18 12:26:29;;;;;;;6.70;1.90;;;23.20;22.40;;;;;;5012879;28;20998;-51
2023/05/18 12:28:55;;;;;;;6.23;2.20;;;23.20;21.80;;;;;;5012839;28;20744;-51
2023/05/18 12:31:22;;;;;;;6.10;2.30;;;23.00;21.90;;;;;;5012689;28;20404;-49
2023/05/18 12:33:49;;;;;;;5.27;2.10;;;23.00;22.00;;;;;;5012776;28;20438;-51
2023/05/18 12:36:16;;;;;;;2.67;1.70;;;22.80;22.10;;;;;;5012821;28;20422;-51
2023/05/18 12:38:41;;;;;;;6.30;2.27;;;22.80;22.20;;;;;;5012720;28;20414;-51
2023/05/18 12:41:07;;;;;;;5.30;1.90;;;22.70;22.30;;;;;;5012497;28;20501;-51
2023/05/18 12:43:34;;;;;;;3.23;1.60;;;22.70;22.70;;;;;;5012622;28;20258;-50
2023/05/18 12:46:02;;;;;;;6.30;2.33;;;22.70;22.70;;;;;;5012406;28;20190;-50
2023/05/18 12:48:34;;;;;;;6.63;2.27;;;22.80;22.90;;;;;;5012401;28;20453;-52
2023/05/18 12:51:00;;;;;;;2.33;1.50;;;22.90;21.80;;;;;;5011835;28;20396;-52